Aragon, GA

9:47 AM EDT on August 24, 2016 (GMT -0400)
Lindale | | Change Station

Elev 740 ft 34.16 °N, 85.18 °W | Updated 12 seconds ago

Overcast
Overcast
77.9 °F
Feels Like 80 °F
N
4.0
Wind Variable Wind from SW
Gusts 5.0 mph

Today
High -- | Low -- °F
--% Chance of Precip.
Yesterday
High -- | Low -- °F
Precip. -- in
Pressure 30.30 in
Visibility 7.0 miles
Clouds Overcast 300 ft
Heat Index 80 °F
Dew Point 74 °F
Humidity 87%
Rainfall 0.00 in
Snow Depth Not available.
7:08 AM 8:15 PM
Waning Gibbous, 57% visible
METAR KPUJ 241335Z AUTO 17004KT 7SM OVC003 27/27 A3030 RMK AO2
Pressure 30.30 in
Visibility 7.0 miles
Clouds Overcast 300 ft
Heat Index 80 °F
Dew Point 74 °F
Humidity 87%
Rainfall 0.00 in
Snow Depth Not available.
7:08 AM 8:15 PM
Waning Gibbous, 57% visible
METAR KPUJ 241335Z AUTO 17004KT 7SM OVC003 27/27 A3030 RMK AO2

10-Day Weather Forecast

Almanac

Astronomy

Aug. 24, 2016 Rise Set
Actual Time
Civil Twilight
Nautical Twilight
Astronomical Twilight
Moon
Length of Visible Light
Length of Day
Tomorrow will be .
, % of the Moon is Illuminated

Today's Extremes

State Highs State Lows

Community

WunderPhotos

Upload Photos

1,934,598 photos uploaded!

WunderBlog® & News

Nearby

Air Quality

  Air Quality AQ Index Pollutant
Not available.

Snow Depth

Station Depth Elevation

Earthquake Activity

City Distance Mag. Time & Date
Minimum magnitude displayed is 2.5.

Coastal Water Temperatures

Place Temperature

Stations

Nearby Weather Stations

Station Location Temp. Windchill Dew Point Humidity Wind Precip. Elev Updated Type
                   

Watches & Warnings

There are currently no watches in effect.